sensor_id;sensor_type;location;lat;lon;timestamp;temperature;humidity
11454;DHT22;5783;55.174;61.310;2023-04-01T00:01:27;20.80;31.60
11454;DHT22;5783;55.174;61.310;2023-04-01T00:03:56;20.80;32.30
11454;DHT22;5783;55.174;61.310;2023-04-01T00:06:25;20.80;32.20
11454;DHT22;5783;55.174;61.310;2023-04-01T00:08:54;20.90;32.70
11454;DHT22;5783;55.174;61.310;2023-04-01T00:11:24;20.90;32.90
11454;DHT22;5783;55.174;61.310;2023-04-01T00:13:54;20.90;32.30
11454;DHT22;5783;55.174;61.310;2023-04-01T00:16:23;21.00;32.30
11454;DHT22;5783;55.174;61.310;2023-04-01T00:18:52;21.10;31.80
11454;DHT22;5783;55.174;61.310;2023-04-01T00:21:22;21.00;32.00
11454;DHT22;5783;55.174;61.310;2023-04-01T00:23:51;21.00;32.00
11454;DHT22;5783;55.174;61.310;2023-04-01T00:26:21;21.00;31.50
11454;DHT22;5783;55.174;61.310;2023-04-01T00:28:51;20.90;31.40
11454;DHT22;5783;55.174;61.310;2023-04-01T00:31:20;20.90;31.80
11454;DHT22;5783;55.174;61.310;2023-04-01T00:33:49;20.90;31.60
11454;DHT22;5783;55.174;61.310;2023-04-01T00:36:21;21.00;31.40
11454;DHT22;5783;55.174;61.310;2023-04-01T00:38:51;21.00;31.40
11454;DHT22;5783;55.174;61.310;2023-04-01T00:41:20;21.00;31.30
11454;DHT22;5783;55.174;61.310;2023-04-01T00:43:51;21.10;31.60
11454;DHT22;5783;55.174;61.310;2023-04-01T00:46:20;21.10;30.70
11454;DHT22;5783;55.174;61.310;2023-04-01T00:48:51;21.20;30.50
11454;DHT22;5783;55.174;61.310;2023-04-01T00:51:24;21.20;30.50
11454;DHT22;5783;55.174;61.310;2023-04-01T00:53:56;21.10;30.50
11454;DHT22;5783;55.174;61.310;2023-04-01T01:02:11;20.90;30.20
11454;DHT22;5783;55.174;61.310;2023-04-01T01:04:41;21.00;31.20
11454;DHT22;5783;55.174;61.310;2023-04-01T01:10:39;21.00;30.60
11454;DHT22;5783;55.174;61.310;2023-04-01T01:16:39;21.00;30.70
11454;DHT22;5783;55.174;61.310;2023-04-01T01:22:40;21.00;30.90
11454;DHT22;5783;55.174;61.310;2023-04-01T01:26:07;21.00;30.70
11454;DHT22;5783;55.174;61.310;2023-04-01T01:36:31;20.90;30.80
11454;DHT22;5783;55.174;61.310;2023-04-01T01:39:03;21.00;30.80
11454;DHT22;5783;55.174;61.310;2023-04-01T01:41:33;21.00;30.60
11454;DHT22;5783;55.174;61.310;2023-04-01T01:44:07;21.00;30.60
11454;DHT22;5783;55.174;61.310;2023-04-01T01:46:36;21.00;30.10
11454;DHT22;5783;55.174;61.310;2023-04-01T01:49:07;21.00;30.40
11454;DHT22;5783;55.174;61.310;2023-04-01T01:51:38;21.00;30.50
11454;DHT22;5783;55.174;61.310;2023-04-01T02:00:09;20.90;30.70
11454;DHT22;5783;55.174;61.310;2023-04-01T02:02:59;20.90;31.00
11454;DHT22;5783;55.174;61.310;2023-04-01T02:05:30;20.80;31.00
11454;DHT22;5783;55.174;61.310;2023-04-01T02:16:36;20.80;31.20
11454;DHT22;5783;55.174;61.310;2023-04-01T02:19:06;20.80;31.30
11454;DHT22;5783;55.174;61.310;2023-04-01T02:21:37;20.80;31.30
11454;DHT22;5783;55.174;61.310;2023-04-01T02:24:10;20.80;31.10
11454;DHT22;5783;55.174;61.310;2023-04-01T02:26:39;20.90;31.10
11454;DHT22;5783;55.174;61.310;2023-04-01T02:29:09;21.00;31.00
11454;DHT22;5783;55.174;61.310;2023-04-01T02:31:42;21.00;30.80
11454;DHT22;5783;55.174;61.310;2023-04-01T02:34:12;21.00;30.80
11454;DHT22;5783;55.174;61.310;2023-04-01T02:36:42;21.00;30.80
11454;DHT22;5783;55.174;61.310;2023-04-01T02:39:11;21.00;30.80
11454;DHT22;5783;55.174;61.310;2023-04-01T02:41:44;21.00;30.70
11454;DHT22;5783;55.174;61.310;2023-04-01T02:44:14;21.00;30.70
11454;DHT22;5783;55.174;61.310;2023-04-01T02:46:44;21.00;30.90
11454;DHT22;5783;55.174;61.310;2023-04-01T02:49:13;21.00;30.70
11454;DHT22;5783;55.174;61.310;2023-04-01T02:51:42;21.00;30.80
11454;DHT22;5783;55.174;61.310;2023-04-01T02:54:11;21.10;30.80
11454;DHT22;5783;55.174;61.310;2023-04-01T02:56:40;21.10;30.60
11454;DHT22;5783;55.174;61.310;2023-04-01T02:59:10;21.10;30.60
11454;DHT22;5783;55.174;61.310;2023-04-01T03:01:39;21.10;30.60
11454;DHT22;5783;55.174;61.310;2023-04-01T03:04:08;21.10;30.50
11454;DHT22;5783;55.174;61.310;2023-04-01T03:06:37;21.10;30.60
11454;DHT22;5783;55.174;61.310;2023-04-01T03:09:06;21.10;30.40
11454;DHT22;5783;55.174;61.310;2023-04-01T03:11:35;21.10;30.60
11454;DHT22;5783;55.174;61.310;2023-04-01T03:14:04;21.10;30.50
11454;DHT22;5783;55.174;61.310;2023-04-01T03:16:33;21.20;30.70
11454;DHT22;5783;55.174;61.310;2023-04-01T03:19:03;21.20;30.50
11454;DHT22;5783;55.174;61.310;2023-04-01T03:21:32;21.20;30.20
11454;DHT22;5783;55.174;61.310;2023-04-01T03:24:01;21.20;30.40
11454;DHT22;5783;55.174;61.310;2023-04-01T03:26:30;21.20;30.30
11454;DHT22;5783;55.174;61.310;2023-04-01T03:28:59;21.30;30.50
11454;DHT22;5783;55.174;61.310;2023-04-01T03:31:28;21.20;30.40
11454;DHT22;5783;55.174;61.310;2023-04-01T03:33:57;21.20;30.50
11454;DHT22;5783;55.174;61.310;2023-04-01T03:36:27;21.20;30.50
11454;DHT22;5783;55.174;61.310;2023-04-01T03:38:56;21.20;30.50
11454;DHT22;5783;55.174;61.310;2023-04-01T03:41:25;21.20;30.40
11454;DHT22;5783;55.174;61.310;2023-04-01T03:43:54;21.20;30.30
11454;DHT22;5783;55.174;61.310;2023-04-01T03:46:24;21.30;30.20
11454;DHT22;5783;55.174;61.310;2023-04-01T03:48:53;21.30;30.20
11454;DHT22;5783;55.174;61.310;2023-04-01T03:51:22;21.20;30.30
11454;DHT22;5783;55.174;61.310;2023-04-01T03:53:51;21.20;30.40
11454;DHT22;5783;55.174;61.310;2023-04-01T03:56:20;21.20;30.40
11454;DHT22;5783;55.174;61.310;2023-04-01T03:58:49;21.20;30.30
11454;DHT22;5783;55.174;61.310;2023-04-01T04:01:21;21.20;30.20
11454;DHT22;5783;55.174;61.310;2023-04-01T04:03:50;21.20;30.40
11454;DHT22;5783;55.174;61.310;2023-04-01T04:06:20;21.20;30.50
11454;DHT22;5783;55.174;61.310;2023-04-01T04:08:49;21.20;30.50
11454;DHT22;5783;55.174;61.310;2023-04-01T04:11:20;21.20;30.40
11454;DHT22;5783;55.174;61.310;2023-04-01T04:13:50;21.20;30.30
11454;DHT22;5783;55.174;61.310;2023-04-01T04:16:19;21.20;30.20
11454;DHT22;5783;55.174;61.310;2023-04-01T04:18:48;21.20;30.30
11454;DHT22;5783;55.174;61.310;2023-04-01T04:21:18;21.20;30.40
11454;DHT22;5783;55.174;61.310;2023-04-01T04:23:47;21.20;30.30
11454;DHT22;5783;55.174;61.310;2023-04-01T04:26:17;21.30;30.30
11454;DHT22;5783;55.174;61.310;2023-04-01T04:28:46;21.30;30.40
11454;DHT22;5783;55.174;61.310;2023-04-01T04:31:35;21.30;30.20
11454;DHT22;5783;55.174;61.310;2023-04-01T04:34:04;21.30;30.40
11454;DHT22;5783;55.174;61.310;2023-04-01T04:36:33;21.30;30.20
11454;DHT22;5783;55.174;61.310;2023-04-01T04:39:02;21.30;30.10
11454;DHT22;5783;55.174;61.310;2023-04-01T04:41:31;21.30;30.20
11454;DHT22;5783;55.174;61.310;2023-04-01T04:44:01;21.40;30.00
11454;DHT22;5783;55.174;61.310;2023-04-01T04:46:30;21.50;29.90
11454;DHT22;5783;55.174;61.310;2023-04-01T04:48:59;21.70;29.60
11454;DHT22;5783;55.174;61.310;2023-04-01T04:51:29;21.80;29.20
11454;DHT22;5783;55.174;61.310;2023-04-01T04:54:30;21.90;29.30
11454;DHT22;5783;55.174;61.310;2023-04-01T04:56:32;21.90;36.50
11454;DHT22;5783;55.174;61.310;2023-04-01T04:59:02;21.90;37.00
11454;DHT22;5783;55.174;61.310;2023-04-01T05:01:31;22.00;29.70
11454;DHT22;5783;55.174;61.310;2023-04-01T05:04:00;22.10;30.40
11454;DHT22;5783;55.174;61.310;2023-04-01T05:06:30;22.20;29.10
11454;DHT22;5783;55.174;61.310;2023-04-01T05:08:59;22.30;28.50
11454;DHT22;5783;55.174;61.310;2023-04-01T05:11:28;22.40;29.30
11454;DHT22;5783;55.174;61.310;2023-04-01T05:13:57;22.60;28.90
11454;DHT22;5783;55.174;61.310;2023-04-01T05:16:26;22.90;28.30
11454;DHT22;5783;55.174;61.310;2023-04-01T05:18:56;23.10;39.60
11454;DHT22;5783;55.174;61.310;2023-04-01T05:21:26;23.30;38.00
11454;DHT22;5783;55.174;61.310;2023-04-01T05:23:55;23.40;29.90
11454;DHT22;5783;55.174;61.310;2023-04-01T05:26:24;23.40;27.00
11454;DHT22;5783;55.174;61.310;2023-04-01T05:31:23;23.50;38.40
11454;DHT22;5783;55.174;61.310;2023-04-01T05:33:52;23.90;43.70
11454;DHT22;5783;55.174;61.310;2023-04-01T05:36:21;24.00;48.60
11454;DHT22;5783;55.174;61.310;2023-04-01T05:38:50;23.70;46.40
11454;DHT22;5783;55.174;61.310;2023-04-01T05:41:21;23.70;44.00
11454;DHT22;5783;55.174;61.310;2023-04-01T05:46:19;23.70;37.00
11454;DHT22;5783;55.174;61.310;2023-04-01T05:48:48;23.70;28.40
11454;DHT22;5783;55.174;61.310;2023-04-01T05:51:17;23.70;28.90
11454;DHT22;5783;55.174;61.310;2023-04-01T05:53:46;23.70;28.20
11454;DHT22;5783;55.174;61.310;2023-04-01T05:56:15;23.70;26.90
11454;DHT22;5783;55.174;61.310;2023-04-01T05:58:46;23.70;26.90
11454;DHT22;5783;55.174;61.310;2023-04-01T06:01:17;23.70;27.40
11454;DHT22;5783;55.174;61.310;2023-04-01T06:03:47;23.70;27.90
11454;DHT22;5783;55.174;61.310;2023-04-01T06:09:26;23.60;28.10
11454;DHT22;5783;55.174;61.310;2023-04-01T06:12:20;23.50;27.70
11454;DHT22;5783;55.174;61.310;2023-04-01T06:15:41;23.50;27.70
11454;DHT22;5783;55.174;61.310;2023-04-01T06:26:30;23.40;27.90
11454;DHT22;5783;55.174;61.310;2023-04-01T06:33:02;23.40;28.40
11454;DHT22;5783;55.174;61.310;2023-04-01T06:57:03;23.50;28.80
11454;DHT22;5783;55.174;61.310;2023-04-01T06:59:34;23.50;28.70
11454;DHT22;5783;55.174;61.310;2023-04-01T07:02:19;23.50;30.80
11454;DHT22;5783;55.174;61.310;2023-04-01T07:04:39;23.50;31.00
11454;DHT22;5783;55.174;61.310;2023-04-01T07:22:54;23.70;33.30
11454;DHT22;5783;55.174;61.310;2023-04-01T07:28:15;23.70;36.90
11454;DHT22;5783;55.174;61.310;2023-04-01T07:34:34;23.80;28.40
11454;DHT22;5783;55.174;61.310;2023-04-01T07:36:47;23.80;28.10
11454;DHT22;5783;55.174;61.310;2023-04-01T07:40:11;23.80;27.70
11454;DHT22;5783;55.174;61.310;2023-04-01T07:48:30;23.90;25.50
11454;DHT22;5783;55.174;61.310;2023-04-01T08:48:04;23.80;25.20
11454;DHT22;5783;55.174;61.310;2023-04-01T08:57:07;24.00;35.10
11454;DHT22;5783;55.174;61.310;2023-04-01T09:41:32;24.30;24.20
11454;DHT22;5783;55.174;61.310;2023-04-01T09:56:19;24.40;23.30
11454;DHT22;5783;55.174;61.310;2023-04-01T10:31:18;24.60;22.50
11454;DHT22;5783;55.174;61.310;2023-04-01T10:36:56;24.60;22.60
11454;DHT22;5783;55.174;61.310;2023-04-01T10:51:47;24.70;36.00
11454;DHT22;5783;55.174;61.310;2023-04-01T11:19:46;24.60;21.60
11454;DHT22;5783;55.174;61.310;2023-04-01T11:31:04;24.60;21.00
11454;DHT22;5783;55.174;61.310;2023-04-01T12:44:13;24.50;21.40
11454;DHT22;5783;55.174;61.310;2023-04-01T12:55:48;24.30;21.80
11454;DHT22;5783;55.174;61.310;2023-04-01T13:18:04;24.20;22.60
11454;DHT22;5783;55.174;61.310;2023-04-01T13:50:53;23.30;37.10
11454;DHT22;5783;55.174;61.310;2023-04-01T13:53:24;23.90;26.00
11454;DHT22;5783;55.174;61.310;2023-04-01T13:55:55;23.90;29.90
11454;DHT22;5783;55.174;61.310;2023-04-01T14:34:59;23.40;25.60
11454;DHT22;5783;55.174;61.310;2023-04-01T14:41:17;23.30;27.20
11454;DHT22;5783;55.174;61.310;2023-04-01T14:52:38;23.10;26.10
11454;DHT22;5783;55.174;61.310;2023-04-01T14:58:18;23.10;26.30
11454;DHT22;5783;55.174;61.310;2023-04-01T15:21:56;21.80;36.00
11454;DHT22;5783;55.174;61.310;2023-04-01T15:24:25;22.20;27.90
11454;DHT22;5783;55.174;61.310;2023-04-01T16:00:53;21.50;29.00
11454;DHT22;5783;55.174;61.310;2023-04-01T16:43:28;21.60;29.40
11454;DHT22;5783;55.174;61.310;2023-04-01T16:51:23;21.50;29.40
11454;DHT22;5783;55.174;61.310;2023-04-01T17:03:57;21.40;29.80
11454;DHT22;5783;55.174;61.310;2023-04-01T17:41:29;21.30;30.20
11454;DHT22;5783;55.174;61.310;2023-04-01T17:44:34;21.30;30.20
11454;DHT22;5783;55.174;61.310;2023-04-01T18:01:24;21.10;30.70
11454;DHT22;5783;55.174;61.310;2023-04-01T18:07:23;21.10;31.10
11454;DHT22;5783;55.174;61.310;2023-04-01T18:10:14;21.10;31.10
11454;DHT22;5783;55.174;61.310;2023-04-01T18:46:08;21.00;30.60
11454;DHT22;5783;55.174;61.310;2023-04-01T18:49:29;21.00;30.60
11454;DHT22;5783;55.174;61.310;2023-04-01T19:04:21;21.10;30.90
11454;DHT22;5783;55.174;61.310;2023-04-01T19:06:23;21.10;31.00
11454;DHT22;5783;55.174;61.310;2023-04-01T19:08:52;21.10;30.90
11454;DHT22;5783;55.174;61.310;2023-04-01T19:30:15;21.10;31.10
11454;DHT22;5783;55.174;61.310;2023-04-01T19:38:31;21.00;30.80
11454;DHT22;5783;55.174;61.310;2023-04-01T19:44:16;21.00;31.10
11454;DHT22;5783;55.174;61.310;2023-04-01T19:56:47;21.00;30.90
11454;DHT22;5783;55.174;61.310;2023-04-01T20:05:04;21.00;30.80
11454;DHT22;5783;55.174;61.310;2023-04-01T20:13:19;20.90;31.40
11454;DHT22;5783;55.174;61.310;2023-04-01T20:15:47;20.90;31.60
11454;DHT22;5783;55.174;61.310;2023-04-01T20:45:10;20.90;31.60
11454;DHT22;5783;55.174;61.310;2023-04-01T20:51:04;20.90;31.50
11454;DHT22;5783;55.174;61.310;2023-04-01T20:57:36;21.00;31.50
11454;DHT22;5783;55.174;61.310;2023-04-01T21:29:50;20.90;31.60
11454;DHT22;5783;55.174;61.310;2023-04-01T21:35:50;20.90;32.00
11454;DHT22;5783;55.174;61.310;2023-04-01T21:41:47;20.90;31.80
11454;DHT22;5783;55.174;61.310;2023-04-01T21:56:54;20.80;31.70
11454;DHT22;5783;55.174;61.310;2023-04-01T22:05:40;20.80;32.10
11454;DHT22;5783;55.174;61.310;2023-04-01T22:17:41;20.80;32.30
11454;DHT22;5783;55.174;61.310;2023-04-01T22:26:31;20.80;32.00
11454;DHT22;5783;55.174;61.310;2023-04-01T22:52:42;20.60;32.00
11454;DHT22;5783;55.174;61.310;2023-04-01T22:55:32;20.60;31.90
11454;DHT22;5783;55.174;61.310;2023-04-01T22:58:25;20.60;31.90
11454;DHT22;5783;55.174;61.310;2023-04-01T23:00:55;20.60;32.10
11454;DHT22;5783;55.174;61.310;2023-04-01T23:09:43;20.60;32.40
11454;DHT22;5783;55.174;61.310;2023-04-01T23:12:13;20.60;32.30
11454;DHT22;5783;55.174;61.310;2023-04-01T23:15:04;20.60;32.30
11454;DHT22;5783;55.174;61.310;2023-04-01T23:29:16;20.60;32.30
11454;DHT22;5783;55.174;61.310;2023-04-01T23:31:47;20.60;32.40
11454;DHT22;5783;55.174;61.310;2023-04-01T23:34:37;20.60;32.30
11454;DHT22;5783;55.174;61.310;2023-04-01T23:37:09;20.60;32.20
11454;DHT22;5783;55.174;61.310;2023-04-01T23:39:58;20.60;32.10
11454;DHT22;5783;55.174;61.310;2023-04-01T23:42:30;20.60;31.90
11454;DHT22;5783;55.174;61.310;2023-04-01T23:45:20;20.60;31.90
11454;DHT22;5783;55.174;61.310;2023-04-01T23:47:50;20.60;31.60
11454;DHT22;5783;55.174;61.310;2023-04-01T23:55:43;20.60;31.70
